createdAt,value
2023-01-09T00:01:55.932Z,98.68
2023-01-09T00:04:22.386Z,98.75
2023-01-09T00:06:54.193Z,98.35
2023-01-09T00:09:21.650Z,98.39
2023-01-09T00:11:48.493Z,98.76
2023-01-09T00:14:15.788Z,98.08
2023-01-09T00:16:42.377Z,98.28
2023-01-09T00:19:08.914Z,97.76
2023-01-09T00:21:35.818Z,98.33
2023-01-09T00:24:02.239Z,97.79
2023-01-09T00:26:28.680Z,97.93
2023-01-09T00:28:55.201Z,97.86
2023-01-09T00:31:23.317Z,97.39
2023-01-09T00:33:55.654Z,98.10
2023-01-09T00:36:22.375Z,98.19
2023-01-09T00:38:48.825Z,97.93
2023-01-09T00:41:17.553Z,97.74
2023-01-09T00:43:46.658Z,98.00
2023-01-09T00:46:13.808Z,97.85
2023-01-09T00:48:42.335Z,98.01
2023-01-09T00:51:09.081Z,98.13
2023-01-09T00:53:37.521Z,97.63
2023-01-09T00:56:07.180Z,97.66
2023-01-09T00:58:34.130Z,98.17
2023-01-09T01:01:00.741Z,97.77
2023-01-09T01:03:27.259Z,98.25
2023-01-09T01:06:12.073Z,98.59
2023-01-09T01:08:38.519Z,98.29
2023-01-09T01:11:06.218Z,98.16
2023-01-09T01:13:32.691Z,97.90
2023-01-09T01:15:59.135Z,98.08
2023-01-09T01:18:25.589Z,97.58
2023-01-09T01:20:52.135Z,97.20
2023-01-09T01:23:18.642Z,97.72
2023-01-09T01:25:45.125Z,97.44
2023-01-09T01:28:11.714Z,97.21
2023-01-09T01:30:42.290Z,97.48
2023-01-09T01:33:09.230Z,97.64
2023-01-09T01:35:36.218Z,97.98
2023-01-09T01:38:02.770Z,97.89
2023-01-09T01:40:29.804Z,97.66
2023-01-09T01:42:56.287Z,97.61
2023-01-09T01:45:24.065Z,96.90
2023-01-09T01:47:50.514Z,97.56
2023-01-09T01:50:21.501Z,97.30
2023-01-09T01:52:52.793Z,97.29
2023-01-09T01:55:19.608Z,96.94
2023-01-09T01:57:48.186Z,97.04
2023-01-09T02:00:14.875Z,96.80
2023-01-09T02:02:43.531Z,96.41
2023-01-09T02:05:10.065Z,96.69
2023-01-09T02:07:36.498Z,96.42
2023-01-09T02:10:03.419Z,96.54
2023-01-09T02:12:29.854Z,96.74
2023-01-09T02:15:03.349Z,96.09
2023-01-09T02:17:48.325Z,96.16
2023-01-09T02:20:27.099Z,96.17
2023-01-09T02:23:11.995Z,96.40
2023-01-09T02:25:38.409Z,96.14
2023-01-09T02:28:19.948Z,96.11
2023-01-09T02:30:49.482Z,96.44
2023-01-09T02:33:15.888Z,95.60
2023-01-09T02:35:57.716Z,96.27
2023-01-09T02:38:29.304Z,95.89
2023-01-09T02:41:08.592Z,95.39
2023-01-09T02:43:35.046Z,95.61
2023-01-09T02:46:01.609Z,95.75
2023-01-09T02:48:28.608Z,95.77
2023-01-09T02:51:01.339Z,95.95
2023-01-09T02:53:27.718Z,96.70
2023-01-09T02:56:17.237Z,96.29
2023-01-09T02:59:02.390Z,96.59
2023-01-09T03:01:48.129Z,96.61
2023-01-09T03:04:27.485Z,95.86
2023-01-09T03:06:59.139Z,96.15
2023-01-09T03:09:27.729Z,96.09
2023-01-09T03:11:57.576Z,96.59
2023-01-09T03:14:25.717Z,96.39
2023-01-09T03:16:55.769Z,96.40
2023-01-09T03:19:24.159Z,96.42
2023-01-09T03:21:51.301Z,96.02
2023-01-09T03:24:17.760Z,96.30
2023-01-09T03:26:44.458Z,96.71
2023-01-09T03:29:10.987Z,96.44
2023-01-09T03:31:37.549Z,95.97
2023-01-09T03:34:04.015Z,96.46
2023-01-09T03:36:30.448Z,96.06
2023-01-09T03:38:57.019Z,96.34
2023-01-09T03:41:23.466Z,96.28
2023-01-09T03:43:49.922Z,96.31
2023-01-09T03:46:17.188Z,96.50
2023-01-09T03:48:43.728Z,96.61
2023-01-09T03:51:10.210Z,96.30
2023-01-09T03:53:36.665Z,96.64
2023-01-09T03:56:03.157Z,96.41
2023-01-09T03:58:29.934Z,96.62
2023-01-09T04:01:00.805Z,96.52
2023-01-09T04:03:27.787Z,96.16
2023-01-09T04:05:54.657Z,95.96
2023-01-09T04:08:21.250Z,96.48
2023-01-09T04:10:51.241Z,96.07
2023-01-09T04:13:18.305Z,96.19
2023-01-09T04:15:44.745Z,96.03
2023-01-09T04:18:11.300Z,95.97
2023-01-09T04:20:37.866Z,96.74
2023-01-09T04:23:04.314Z,97.00
2023-01-09T04:25:31.160Z,96.32
2023-01-09T04:27:57.691Z,97.00
2023-01-09T04:30:24.476Z,97.10
2023-01-09T04:32:52.092Z,96.64
2023-01-09T04:35:19.094Z,96.52
2023-01-09T04:37:45.522Z,96.80
2023-01-09T04:40:12.254Z,96.61
2023-01-09T04:42:39.237Z,96.63
2023-01-09T04:45:06.251Z,96.94
2023-01-09T04:47:33.105Z,96.87
2023-01-09T04:50:00.284Z,96.91
2023-01-09T04:52:26.958Z,96.14
2023-01-09T04:54:53.438Z,96.22
2023-01-09T04:57:20.045Z,96.12
2023-01-09T04:59:46.520Z,96.51
2023-01-09T05:02:13.085Z,96.27
2023-01-09T05:04:39.861Z,96.07
2023-01-09T05:07:06.362Z,96.31
2023-01-09T05:09:32.833Z,96.55
2023-01-09T05:12:01.640Z,95.89
2023-01-09T05:14:28.273Z,95.89
2023-01-09T05:16:54.746Z,95.45
2023-01-09T05:19:21.601Z,95.57
2023-01-09T05:21:48.104Z,95.42
2023-01-09T05:24:14.557Z,95.21
2023-01-09T05:26:41.010Z,94.83
2023-01-09T05:29:07.533Z,95.22
2023-01-09T05:31:34.054Z,95.30
2023-01-09T05:34:00.886Z,94.99
2023-01-09T05:36:28.358Z,95.10
2023-01-09T05:38:54.928Z,94.84
2023-01-09T05:41:23.552Z,95.10
2023-01-09T05:43:50.616Z,94.59
2023-01-09T05:46:17.095Z,94.73
2023-01-09T05:48:44.590Z,94.56
2023-01-09T05:51:11.608Z,94.13
2023-01-09T05:53:38.024Z,94.00
2023-01-09T05:56:04.506Z,93.72
2023-01-09T05:58:31.132Z,94.04
2023-01-09T06:00:58.296Z,93.71
2023-01-09T06:03:24.740Z,93.91
2023-01-09T06:05:51.810Z,93.35
2023-01-09T06:08:18.305Z,93.25
2023-01-09T06:10:45.694Z,93.05
2023-01-09T06:13:12.146Z,93.94
2023-01-09T06:15:38.630Z,93.34
2023-01-09T06:18:05.140Z,93.72
2023-01-09T06:20:31.696Z,93.36
2023-01-09T06:22:58.215Z,93.82
2023-01-09T06:25:24.827Z,93.81
2023-01-09T06:27:52.261Z,93.85
2023-01-09T06:30:19.395Z,93.45
2023-01-09T06:32:47.985Z,93.35
2023-01-09T06:35:14.634Z,93.01
2023-01-09T06:37:41.076Z,93.49
2023-01-09T06:40:07.878Z,93.48
2023-01-09T06:42:34.356Z,93.76
2023-01-09T06:45:00.835Z,93.44
2023-01-09T06:47:27.339Z,93.34
2023-01-09T06:49:53.809Z,93.31
2023-01-09T06:52:20.263Z,93.02
2023-01-09T06:54:46.719Z,93.32
2023-01-09T06:57:14.577Z,93.29
2023-01-09T06:59:40.991Z,93.25
2023-01-09T07:02:15.084Z,93.12
2023-01-09T07:04:41.540Z,92.91
2023-01-09T07:07:07.971Z,92.52
2023-01-09T07:09:34.434Z,93.27
2023-01-09T07:12:01.046Z,93.47
2023-01-09T07:14:27.620Z,92.93
2023-01-09T07:16:54.090Z,92.75
2023-01-09T07:19:20.556Z,92.48
2023-01-09T07:21:47.085Z,92.03
2023-01-09T07:24:13.569Z,92.84
2023-01-09T07:26:41.055Z,92.80
2023-01-09T07:29:09.114Z,91.86
2023-01-09T07:31:35.622Z,91.70
2023-01-09T07:34:02.074Z,91.63
2023-01-09T07:36:28.542Z,91.45
2023-01-09T07:38:55.014Z,91.93
2023-01-09T07:41:21.553Z,92.11
2023-01-09T07:43:48.044Z,91.94
2023-01-09T07:46:14.515Z,91.96
2023-01-09T07:48:40.983Z,91.48
2023-01-09T07:51:07.443Z,91.42
2023-01-09T07:53:33.881Z,92.04
2023-01-09T07:56:00.308Z,91.55
2023-01-09T07:58:26.790Z,91.50
2023-01-09T08:00:53.256Z,90.63
2023-01-09T08:03:19.701Z,91.19
2023-01-09T08:05:46.301Z,90.81
2023-01-09T08:08:14.912Z,91.14
2023-01-09T08:10:41.381Z,90.53
2023-01-09T08:13:08.005Z,90.21
2023-01-09T08:15:34.619Z,90.30
2023-01-09T08:18:01.060Z,90.13
2023-01-09T08:20:27.660Z,90.13
2023-01-09T08:22:55.099Z,90.36
2023-01-09T08:25:21.549Z,90.32
2023-01-09T08:27:48.170Z,90.42
2023-01-09T08:30:14.865Z,90.11
2023-01-09T08:32:41.741Z,90.17
2023-01-09T08:35:08.832Z,89.55
2023-01-09T08:37:35.347Z,89.73
2023-01-09T08:40:01.799Z,89.93
2023-01-09T08:42:47.008Z,89.39
2023-01-09T08:45:31.888Z,89.83
2023-01-09T08:47:58.505Z,89.70
2023-01-09T08:50:25.063Z,89.21
2023-01-09T08:52:51.531Z,88.88
2023-01-09T08:55:17.977Z,88.86
2023-01-09T08:57:51.577Z,88.94
2023-01-09T09:00:18.651Z,89.25
2023-01-09T09:02:45.180Z,89.31
2023-01-09T09:05:11.654Z,88.54
2023-01-09T09:07:38.186Z,89.27
2023-01-09T09:10:04.846Z,89.26
2023-01-09T09:12:31.285Z,89.22
2023-01-09T09:15:12.746Z,88.92
2023-01-09T09:17:45.496Z,89.18
2023-01-09T09:20:12.482Z,88.49
2023-01-09T09:22:39.228Z,89.50
2023-01-09T09:25:06.583Z,89.49
2023-01-09T09:27:33.088Z,88.52
2023-01-09T09:29:59.554Z,89.52
2023-01-09T09:32:26.034Z,89.29
2023-01-09T09:34:52.510Z,88.53
2023-01-09T09:37:18.960Z,89.27
2023-01-09T09:39:45.505Z,89.02
2023-01-09T09:42:45.849Z,89.45
2023-01-09T09:45:36.152Z,89.89
2023-01-09T09:48:08.509Z,89.90
2023-01-09T09:50:53.785Z,90.15
2023-01-09T09:53:26.368Z,90.14
2023-01-09T09:55:52.978Z,90.46
2023-01-09T09:58:34.281Z,90.38
2023-01-09T10:01:01.160Z,90.65
2023-01-09T10:03:34.271Z,90.74
2023-01-09T10:06:03.663Z,91.23
2023-01-09T10:08:46.615Z,90.97
2023-01-09T10:11:20.548Z,90.86
2023-01-09T10:14:06.351Z,90.43
2023-01-09T10:16:53.817Z,91.51
2023-01-09T10:19:29.183Z,91.42
2023-01-09T10:22:01.614Z,91.09
2023-01-09T10:24:36.114Z,91.46
2023-01-09T10:27:10.025Z,92.30
2023-01-09T10:29:45.363Z,92.04
2023-01-09T10:32:30.709Z,92.42
2023-01-09T10:34:57.139Z,92.92
2023-01-09T10:37:26.912Z,92.18
2023-01-09T10:40:02.325Z,92.33
2023-01-09T10:42:37.548Z,92.39
2023-01-09T10:45:03.996Z,93.19
2023-01-09T10:47:35.294Z,93.15
2023-01-09T10:50:34.210Z,93.02
2023-01-09T10:53:05.062Z,92.55
2023-01-09T10:55:43.045Z,92.55
2023-01-09T10:58:13.532Z,91.83
2023-01-09T11:00:41.034Z,91.67
2023-01-09T11:03:11.933Z,90.87
2023-01-09T11:05:38.541Z,90.23
2023-01-09T11:08:14.077Z,90.62
2023-01-09T11:10:54.724Z,89.54
2023-01-09T11:13:25.963Z,89.48
2023-01-09T11:16:19.084Z,89.46
2023-01-09T11:18:57.706Z,89.43
2023-01-09T11:21:41.861Z,88.10
2023-01-09T11:24:21.350Z,88.28
2023-01-09T11:27:13.886Z,88.15
2023-01-09T11:29:43.570Z,87.96
2023-01-09T11:32:22.078Z,88.30
2023-01-09T11:34:49.253Z,89.21
2023-01-09T11:37:21.330Z,89.23
2023-01-09T11:39:48.162Z,88.99
2023-01-09T11:42:43.335Z,89.35
2023-01-09T11:45:15.483Z,90.62
2023-01-09T11:47:42.134Z,90.81
2023-01-09T11:50:16.974Z,90.61
2023-01-09T11:52:43.461Z,90.51
2023-01-09T11:55:12.402Z,90.54
2023-01-09T11:57:38.897Z,90.55
2023-01-09T12:00:21.654Z,90.89
2023-01-09T12:03:16.058Z,90.11
2023-01-09T12:05:42.486Z,90.54
2023-01-09T12:08:19.966Z,90.09
2023-01-09T12:11:10.687Z,91.03
2023-01-09T12:13:37.143Z,90.88
2023-01-09T12:16:03.617Z,91.09
2023-01-09T12:18:41.431Z,90.77
2023-01-09T12:21:13.642Z,90.36
2023-01-09T12:23:40.046Z,91.12
2023-01-09T12:26:06.474Z,90.96
2023-01-09T12:28:35.867Z,91.45
2023-01-09T12:31:02.321Z,91.26
2023-01-09T12:33:42.674Z,91.39
2023-01-09T12:36:28.015Z,91.26
2023-01-09T12:38:56.077Z,90.68
2023-01-09T12:41:23.094Z,91.00
2023-01-09T12:43:49.539Z,90.78
2023-01-09T12:46:18.038Z,90.70
2023-01-09T12:48:53.399Z,91.15
2023-01-09T12:51:19.841Z,90.31
2023-01-09T12:53:49.315Z,91.51
2023-01-09T12:56:21.733Z,91.13
2023-01-09T12:58:48.225Z,91.47
2023-01-09T13:01:18.424Z,91.19
2023-01-09T13:03:44.890Z,91.44
2023-01-09T13:06:14.786Z,90.69
2023-01-09T13:08:43.674Z,91.43
2023-01-09T13:11:21.055Z,91.07
2023-01-09T13:13:48.164Z,91.59
2023-01-09T13:16:17.312Z,91.24
2023-01-09T13:18:56.110Z,91.96
2023-01-09T13:21:22.772Z,91.12
2023-01-09T13:23:56.004Z,91.56
2023-01-09T13:26:25.504Z,91.43
2023-01-09T13:28:54.788Z,91.63
2023-01-09T13:31:33.729Z,91.21
2023-01-09T13:34:02.750Z,91.25
2023-01-09T13:36:31.384Z,91.29
2023-01-09T13:38:58.593Z,91.18
2023-01-09T13:41:45.839Z,91.11
2023-01-09T13:44:18.471Z,90.82
2023-01-09T13:46:49.497Z,90.33
2023-01-09T13:49:28.375Z,90.87
2023-01-09T13:51:59.783Z,89.93
2023-01-09T13:54:49.466Z,90.13
2023-01-09T13:57:18.536Z,90.22
2023-01-09T13:59:46.025Z,90.12
2023-01-09T14:02:31.290Z,90.49
2023-01-09T14:04:57.908Z,90.27
2023-01-09T14:07:26.258Z,90.16
2023-01-09T14:09:56.114Z,90.38
2023-01-09T14:12:23.364Z,89.66
2023-01-09T14:14:51.429Z,90.19
2023-01-09T14:17:23.342Z,91.09
2023-01-09T14:19:53.806Z,90.41
2023-01-09T14:22:38.051Z,90.89
2023-01-09T14:27:55.153Z,90.89
2023-01-09T14:30:27.468Z,90.49
2023-01-09T14:33:00.159Z,91.06
2023-01-09T14:35:37.339Z,91.04
2023-01-09T14:38:06.600Z,91.38
2023-01-09T14:40:33.292Z,91.12
2023-01-09T14:43:09.195Z,91.04
2023-01-09T14:45:37.859Z,90.90
2023-01-09T14:48:06.145Z,90.17
2023-01-09T14:50:37.977Z,90.92
2023-01-09T14:53:10.239Z,90.46
2023-01-09T14:55:55.536Z,90.63
2023-01-09T14:58:29.306Z,90.44
2023-01-09T15:01:06.685Z,90.68
2023-01-09T15:03:37.266Z,90.60
2023-01-09T15:06:04.221Z,91.11
2023-01-09T15:08:31.996Z,90.38
2023-01-09T15:10:59.517Z,90.92
2023-01-09T15:13:25.912Z,91.14
2023-01-09T15:15:52.505Z,91.54
2023-01-09T15:18:22.168Z,91.54
2023-01-09T15:20:52.682Z,91.14
2023-01-09T15:23:23.595Z,91.64
2023-01-09T15:25:50.077Z,91.37
2023-01-09T15:28:32.039Z,91.15
2023-01-09T15:31:11.678Z,90.91
2023-01-09T15:33:39.371Z,90.94
2023-01-09T15:36:12.877Z,90.45
2023-01-09T15:38:40.262Z,91.12
2023-01-09T15:41:09.023Z,90.91
2023-01-09T15:43:39.417Z,91.11
2023-01-09T15:46:06.055Z,91.21
2023-01-09T15:48:33.909Z,90.84
2023-01-09T15:51:03.447Z,91.25
2023-01-09T15:53:30.044Z,91.15
2023-01-09T15:56:07.724Z,91.35
2023-01-09T15:58:34.824Z,91.19
2023-01-09T16:01:07.543Z,91.31
2023-01-09T16:03:38.207Z,91.34
2023-01-09T16:06:09.799Z,91.63
2023-01-09T16:08:41.169Z,91.79
2023-01-09T16:11:10.734Z,91.19
2023-01-09T16:13:44.876Z,91.19
2023-01-09T16:16:12.141Z,91.49
2023-01-09T16:18:49.143Z,91.27
2023-01-09T16:21:23.508Z,91.38
2023-01-09T16:24:00.934Z,91.70
2023-01-09T16:26:28.650Z,91.78
2023-01-09T16:28:55.449Z,91.64
2023-01-09T16:31:31.265Z,91.61
2023-01-09T16:34:06.526Z,92.41
2023-01-09T16:36:36.627Z,92.02
2023-01-09T16:39:04.175Z,91.99
2023-01-09T16:41:49.257Z,92.16
2023-01-09T16:44:15.804Z,92.07
2023-01-09T16:46:43.754Z,92.56
2023-01-09T16:49:18.610Z,92.75
2023-01-09T16:51:45.567Z,92.61
2023-01-09T16:54:12.155Z,91.84
2023-01-09T16:56:39.524Z,91.77
2023-01-09T16:59:10.371Z,91.02
2023-01-09T17:01:36.884Z,92.02
2023-01-09T17:04:09.327Z,91.89
2023-01-09T17:06:35.850Z,92.01
2023-01-09T17:09:02.325Z,92.89
2023-01-09T17:11:31.632Z,92.59
2023-01-09T17:14:02.149Z,92.86
2023-01-09T17:16:29.004Z,92.96
2023-01-09T17:18:55.628Z,92.99
2023-01-09T17:21:23.306Z,92.68
2023-01-09T17:24:08.666Z,92.82
2023-01-09T17:26:54.700Z,92.88
2023-01-09T17:29:21.542Z,92.97
2023-01-09T17:31:48.075Z,92.97
2023-01-09T17:34:14.522Z,93.01
2023-01-09T17:36:41.055Z,93.08
2023-01-09T17:39:07.571Z,93.49
2023-01-09T17:41:34.070Z,93.64
2023-01-09T17:44:00.605Z,93.69
2023-01-09T17:46:28.955Z,93.59
2023-01-09T17:48:55.431Z,93.12
2023-01-09T17:51:21.873Z,93.28
2023-01-09T17:53:48.494Z,93.40
2023-01-09T17:56:17.309Z,93.01
2023-01-09T17:58:45.716Z,93.40
2023-01-09T18:01:16.536Z,93.75
2023-01-09T18:03:43.635Z,93.70
2023-01-09T18:06:11.772Z,93.62
2023-01-09T18:08:38.814Z,93.17
2023-01-09T18:11:06.154Z,92.84
2023-01-09T18:13:33.591Z,92.80
2023-01-09T18:16:03.730Z,92.92
2023-01-09T18:18:30.334Z,93.37
2023-01-09T18:20:56.872Z,93.24
2023-01-09T18:23:23.826Z,92.94
2023-01-09T18:25:50.365Z,93.09
2023-01-09T18:28:16.979Z,92.83
2023-01-09T18:30:45.252Z,93.73
2023-01-09T18:33:12.294Z,92.87
2023-01-09T18:35:39.039Z,93.38
2023-01-09T18:38:05.575Z,93.66
2023-01-09T18:40:33.149Z,93.27
2023-01-09T18:43:00.109Z,93.42
2023-01-09T18:45:26.649Z,93.79
2023-01-09T18:47:53.141Z,94.45
2023-01-09T18:50:19.602Z,94.16
2023-01-09T18:52:46.073Z,94.63
2023-01-09T18:55:12.545Z,94.70
2023-01-09T18:57:39.023Z,94.54
2023-01-09T19:00:05.886Z,93.88
2023-01-09T19:02:32.419Z,94.14
2023-01-09T19:04:58.897Z,94.24
2023-01-09T19:07:25.375Z,94.69
2023-01-09T19:09:51.839Z,94.37
2023-01-09T19:12:18.659Z,94.84
2023-01-09T19:14:45.366Z,95.16
2023-01-09T19:17:11.796Z,95.68
2023-01-09T19:19:38.261Z,95.32
2023-01-09T19:22:04.954Z,95.16
2023-01-09T19:24:33.005Z,95.05
2023-01-09T19:26:59.812Z,95.34
2023-01-09T19:29:26.971Z,94.60
2023-01-09T19:31:53.593Z,94.67
2023-01-09T19:34:20.546Z,94.49
2023-01-09T19:36:47.838Z,94.86
2023-01-09T19:39:14.444Z,95.24
2023-01-09T19:41:40.968Z,95.01
2023-01-09T19:44:07.653Z,95.58
2023-01-09T19:46:35.412Z,95.38
2023-01-09T19:49:04.793Z,95.24
2023-01-09T19:51:32.515Z,96.05
2023-01-09T19:56:25.907Z,96.07
2023-01-09T19:58:53.539Z,96.16
2023-01-09T20:01:24.743Z,96.01
2023-01-09T20:03:52.058Z,96.04
2023-01-09T20:06:22.362Z,96.42
2023-01-09T20:08:53.654Z,95.61
2023-01-09T20:11:20.670Z,96.38
2023-01-09T20:13:47.155Z,96.22
2023-01-09T20:16:15.412Z,96.60
2023-01-09T20:18:41.922Z,95.94
2023-01-09T20:21:08.367Z,96.43
2023-01-09T20:23:34.846Z,96.15
2023-01-09T20:26:01.798Z,96.09
2023-01-09T20:28:28.272Z,96.09
2023-01-09T20:30:55.134Z,96.60
2023-01-09T20:33:22.072Z,96.19
2023-01-09T20:35:48.638Z,96.31
2023-01-09T20:38:15.245Z,96.48
2023-01-09T20:40:44.681Z,97.01
2023-01-09T20:43:12.553Z,96.63
2023-01-09T20:45:39.673Z,97.54
2023-01-09T20:48:06.410Z,97.12
2023-01-09T20:50:33.302Z,97.45
2023-01-09T20:52:59.777Z,97.25
2023-01-09T20:55:26.277Z,98.17
2023-01-09T20:57:52.798Z,98.42
2023-01-09T21:00:19.283Z,98.21
2023-01-09T21:02:45.773Z,98.01
2023-01-09T21:05:12.313Z,97.41
2023-01-09T21:07:38.756Z,97.68
2023-01-09T21:10:05.496Z,98.45
2023-01-09T21:12:35.293Z,98.59
2023-01-09T21:15:04.655Z,98.98
2023-01-09T21:17:35.052Z,98.51
2023-01-09T21:20:01.497Z,99.21
2023-01-09T21:22:27.996Z,99.40
2023-01-09T21:24:54.441Z,99.30
2023-01-09T21:27:20.930Z,99.08
2023-01-09T21:29:47.459Z,98.67
2023-01-09T21:32:13.968Z,98.45
2023-01-09T21:34:40.510Z,98.78
2023-01-09T21:37:07.132Z,98.72
2023-01-09T21:39:34.156Z,98.42
2023-01-09T21:42:18.983Z,98.94
2023-01-09T21:45:03.800Z,99.50
2023-01-09T21:47:32.186Z,99.23
2023-01-09T21:49:58.613Z,99.22
2023-01-09T21:52:25.707Z,99.57
2023-01-09T21:54:52.208Z,99.00
2023-01-09T21:57:18.821Z,99.57
2023-01-09T21:59:45.245Z,99.72
2023-01-09T22:02:12.879Z,100.00
2023-01-09T22:04:39.897Z,100.00
2023-01-09T22:07:06.331Z,100.00
2023-01-09T22:09:32.826Z,100.00
2023-01-09T22:11:59.254Z,100.00
2023-01-09T22:14:25.690Z,100.00
2023-01-09T22:16:52.164Z,100.00
2023-01-09T22:19:18.671Z,100.00
2023-01-09T22:21:45.487Z,100.00
2023-01-09T22:24:12.868Z,100.00
2023-01-09T22:26:39.309Z,100.00
2023-01-09T22:29:05.793Z,100.00
2023-01-09T22:31:35.333Z,100.00
2023-01-09T22:34:02.646Z,100.00
2023-01-09T22:36:29.841Z,100.00
2023-01-09T22:38:57.033Z,100.00
2023-01-09T22:41:24.615Z,100.00
2023-01-09T22:43:51.526Z,100.00
2023-01-09T22:46:18.040Z,100.00
2023-01-09T22:48:44.842Z,100.00
2023-01-09T22:51:15.668Z,100.00
2023-01-09T22:53:42.360Z,99.96
2023-01-09T22:56:11.499Z,100.00
2023-01-09T22:58:37.963Z,100.00
2023-01-09T23:01:05.016Z,100.00
2023-01-09T23:03:31.492Z,99.62
2023-01-09T23:06:17.193Z,99.93
2023-01-09T23:08:43.953Z,99.90
2023-01-09T23:11:12.948Z,100.00
2023-01-09T23:13:39.401Z,100.00
2023-01-09T23:16:05.963Z,100.00
2023-01-09T23:18:32.410Z,100.00
2023-01-09T23:21:00.693Z,100.00
2023-01-09T23:23:27.853Z,100.00
2023-01-09T23:25:55.318Z,100.00
2023-01-09T23:28:22.222Z,100.00
2023-01-09T23:30:48.751Z,100.00
2023-01-09T23:33:16.681Z,100.00
2023-01-09T23:35:43.652Z,100.00
2023-01-09T23:38:11.616Z,100.00
2023-01-09T23:40:39.136Z,100.00
2023-01-09T23:43:11.437Z,99.82
2023-01-09T23:45:49.419Z,99.81
2023-01-09T23:48:16.824Z,99.80
2023-01-09T23:50:44.812Z,99.67
2023-01-09T23:53:11.310Z,100.00
2023-01-09T23:55:37.755Z,99.87
2023-01-09T23:58:04.191Z,100.00
